sensor_id;sensor_type;location;lat;lon;timestamp;pressure;altitude;pressure_sealevel;temperature;humidity
18850;BME280;4989;48.772;9.154;2023-02-19T00:03:51;98531.56;;;12.05;97.28
18850;BME280;4989;48.772;9.154;2023-02-19T00:08:55;98528.81;;;12.05;96.85
18850;BME280;4989;48.772;9.154;2023-02-19T00:13:58;98527.56;;;11.89;95.45
18850;BME280;4989;48.772;9.154;2023-02-19T00:19:05;98514.63;;;11.94;94.99
18850;BME280;4989;48.772;9.154;2023-02-19T00:24:11;98523.28;;;11.88;92.63
18850;BME280;4989;48.772;9.154;2023-02-19T00:29:18;98513.69;;;11.80;93.12
18850;BME280;4989;48.772;9.154;2023-02-19T00:34:24;98510.84;;;11.87;93.69
18850;BME280;4989;48.772;9.154;2023-02-19T00:39:27;98519.38;;;11.89;90.35
18850;BME280;4989;48.772;9.154;2023-02-19T00:44:30;98524.22;;;11.78;92.39
18850;BME280;4989;48.772;9.154;2023-02-19T00:49:33;98522.09;;;11.89;90.65
18850;BME280;4989;48.772;9.154;2023-02-19T00:54:35;98522.94;;;11.86;89.97
18850;BME280;4989;48.772;9.154;2023-02-19T00:59:38;98528.88;;;11.78;91.52
18850;BME280;4989;48.772;9.154;2023-02-19T01:04:40;98507.22;;;11.70;91.21
18850;BME280;4989;48.772;9.154;2023-02-19T01:09:43;98492.38;;;11.52;92.89
18850;BME280;4989;48.772;9.154;2023-02-19T01:14:45;98486.47;;;11.57;92.57
18850;BME280;4989;48.772;9.154;2023-02-19T01:19:47;98493.44;;;11.58;91.84
18850;BME280;4989;48.772;9.154;2023-02-19T01:24:50;98490.47;;;11.49;91.75
18850;BME280;4989;48.772;9.154;2023-02-19T01:29:52;98489.66;;;11.52;91.03
18850;BME280;4989;48.772;9.154;2023-02-19T01:34:54;98482.69;;;11.51;91.12
18850;BME280;4989;48.772;9.154;2023-02-19T01:39:56;98482.38;;;11.68;90.35
18850;BME280;4989;48.772;9.154;2023-02-19T01:45:36;98475.81;;;11.66;90.71
18850;BME280;4989;48.772;9.154;2023-02-19T01:50:45;98476.47;;;11.50;90.74
18850;BME280;4989;48.772;9.154;2023-02-19T01:55:51;98487.34;;;11.50;90.87
18850;BME280;4989;48.772;9.154;2023-02-19T02:00:55;98472.50;;;11.55;90.62
18850;BME280;4989;48.772;9.154;2023-02-19T02:11:30;98470.44;;;11.39;92.99
18850;BME280;4989;48.772;9.154;2023-02-19T02:38:15;98445.63;;;10.86;100.00
18850;BME280;4989;48.772;9.154;2023-02-19T02:43:19;98435.91;;;10.85;100.00
18850;BME280;4989;48.772;9.154;2023-02-19T02:53:48;98431.72;;;10.81;100.00
18850;BME280;4989;48.772;9.154;2023-02-19T02:59:14;98431.66;;;10.84;100.00
18850;BME280;4989;48.772;9.154;2023-02-19T03:10:09;98437.59;;;11.03;100.00
18850;BME280;4989;48.772;9.154;2023-02-19T03:15:14;98438.53;;;10.92;100.00
18850;BME280;4989;48.772;9.154;2023-02-19T03:20:42;98436.78;;;10.51;100.00
18850;BME280;4989;48.772;9.154;2023-02-19T03:25:48;98434.88;;;10.18;100.00
18850;BME280;4989;48.772;9.154;2023-02-19T03:31:20;98433.56;;;9.95;100.00
18850;BME280;4989;48.772;9.154;2023-02-19T03:36:26;98426.25;;;9.92;100.00
18850;BME280;4989;48.772;9.154;2023-02-19T03:47:26;98430.59;;;9.86;100.00
18850;BME280;4989;48.772;9.154;2023-02-19T03:52:41;98428.97;;;9.92;100.00
18850;BME280;4989;48.772;9.154;2023-02-19T03:58:00;98441.38;;;9.93;100.00
18850;BME280;4989;48.772;9.154;2023-02-19T04:04:12;98437.56;;;9.87;100.00
18850;BME280;4989;48.772;9.154;2023-02-19T04:08:46;98450.69;;;9.92;100.00
18850;BME280;4989;48.772;9.154;2023-02-19T04:14:15;98454.56;;;9.91;100.00
18850;BME280;4989;48.772;9.154;2023-02-19T04:19:21;98451.44;;;9.96;100.00
18850;BME280;4989;48.772;9.154;2023-02-19T04:29:38;98458.38;;;9.97;100.00
18850;BME280;4989;48.772;9.154;2023-02-19T04:34:40;98470.88;;;9.91;100.00
18850;BME280;4989;48.772;9.154;2023-02-19T04:39:43;98480.19;;;9.90;100.00
18850;BME280;4989;48.772;9.154;2023-02-19T04:44:45;98476.91;;;10.06;100.00
18850;BME280;4989;48.772;9.154;2023-02-19T04:49:48;98480.91;;;9.94;100.00
18850;BME280;4989;48.772;9.154;2023-02-19T04:54:50;98503.06;;;9.89;100.00
18850;BME280;4989;48.772;9.154;2023-02-19T04:59:53;98490.59;;;9.95;100.00
18850;BME280;4989;48.772;9.154;2023-02-19T05:04:55;98510.94;;;10.18;100.00
18850;BME280;4989;48.772;9.154;2023-02-19T05:09:58;98509.41;;;10.17;100.00
18850;BME280;4989;48.772;9.154;2023-02-19T05:15:01;98504.69;;;10.21;100.00
18850;BME280;4989;48.772;9.154;2023-02-19T05:20:04;98518.41;;;10.44;100.00
18850;BME280;4989;48.772;9.154;2023-02-19T05:25:07;98522.53;;;10.56;100.00
18850;BME280;4989;48.772;9.154;2023-02-19T05:30:10;98518.81;;;10.73;100.00
18850;BME280;4989;48.772;9.154;2023-02-19T05:35:13;98514.13;;;10.74;100.00
18850;BME280;4989;48.772;9.154;2023-02-19T05:40:15;98530.09;;;10.41;100.00
18850;BME280;4989;48.772;9.154;2023-02-19T05:45:18;98532.91;;;10.65;100.00
18850;BME280;4989;48.772;9.154;2023-02-19T05:50:20;98542.69;;;10.89;100.00
18850;BME280;4989;48.772;9.154;2023-02-19T05:55:23;98537.66;;;11.15;100.00
18850;BME280;4989;48.772;9.154;2023-02-19T06:00:26;98542.84;;;11.33;100.00
18850;BME280;4989;48.772;9.154;2023-02-19T06:05:29;98547.66;;;11.21;100.00
18850;BME280;4989;48.772;9.154;2023-02-19T06:10:32;98557.91;;;11.14;100.00
18850;BME280;4989;48.772;9.154;2023-02-19T06:15:35;98555.81;;;10.94;100.00
18850;BME280;4989;48.772;9.154;2023-02-19T06:20:38;98583.50;;;10.55;100.00
18850;BME280;4989;48.772;9.154;2023-02-19T06:25:40;98596.13;;;10.38;100.00
18850;BME280;4989;48.772;9.154;2023-02-19T06:30:43;98581.47;;;10.25;100.00
18850;BME280;4989;48.772;9.154;2023-02-19T06:35:45;98589.72;;;9.73;100.00
18850;BME280;4989;48.772;9.154;2023-02-19T06:40:48;98582.13;;;9.53;100.00
18850;BME280;4989;48.772;9.154;2023-02-19T06:45:50;98586.72;;;9.60;100.00
18850;BME280;4989;48.772;9.154;2023-02-19T06:50:53;98605.38;;;9.54;100.00
18850;BME280;4989;48.772;9.154;2023-02-19T07:00:59;98624.59;;;9.78;100.00
18850;BME280;4989;48.772;9.154;2023-02-19T07:06:02;98637.00;;;9.75;100.00
18850;BME280;4989;48.772;9.154;2023-02-19T07:11:05;98627.00;;;9.61;100.00
18850;BME280;4989;48.772;9.154;2023-02-19T07:16:09;98644.75;;;9.77;100.00
18850;BME280;4989;48.772;9.154;2023-02-19T07:21:14;98649.84;;;9.68;100.00
18850;BME280;4989;48.772;9.154;2023-02-19T07:26:18;98652.56;;;9.68;100.00
18850;BME280;4989;48.772;9.154;2023-02-19T07:31:22;98659.69;;;9.47;100.00
18850;BME280;4989;48.772;9.154;2023-02-19T07:36:25;98644.53;;;9.53;100.00
18850;BME280;4989;48.772;9.154;2023-02-19T07:41:27;98648.38;;;9.59;100.00
18850;BME280;4989;48.772;9.154;2023-02-19T07:46:32;98640.97;;;9.63;100.00
18850;BME280;4989;48.772;9.154;2023-02-19T07:51:34;98655.66;;;9.70;100.00
18850;BME280;4989;48.772;9.154;2023-02-19T07:56:36;98663.25;;;9.93;100.00
18850;BME280;4989;48.772;9.154;2023-02-19T08:01:38;98666.66;;;10.00;100.00
18850;BME280;4989;48.772;9.154;2023-02-19T08:06:59;98656.22;;;9.95;100.00
18850;BME280;4989;48.772;9.154;2023-02-19T08:12:01;98657.34;;;10.01;100.00
18850;BME280;4989;48.772;9.154;2023-02-19T08:17:22;98660.72;;;10.16;100.00
18850;BME280;4989;48.772;9.154;2023-02-19T08:22:24;98673.00;;;10.35;100.00
18850;BME280;4989;48.772;9.154;2023-02-19T08:27:27;98670.66;;;10.37;100.00
18850;BME280;4989;48.772;9.154;2023-02-19T08:32:29;98686.31;;;10.19;100.00
18850;BME280;4989;48.772;9.154;2023-02-19T08:37:31;98693.88;;;10.45;100.00
18850;BME280;4989;48.772;9.154;2023-02-19T08:42:33;98697.88;;;10.30;100.00
18850;BME280;4989;48.772;9.154;2023-02-19T08:47:36;98699.38;;;10.35;100.00
18850;BME280;4989;48.772;9.154;2023-02-19T08:52:39;98711.94;;;10.18;100.00
18850;BME280;4989;48.772;9.154;2023-02-19T08:57:41;98718.16;;;10.15;100.00
18850;BME280;4989;48.772;9.154;2023-02-19T09:02:43;98725.06;;;10.30;100.00
18850;BME280;4989;48.772;9.154;2023-02-19T09:07:46;98733.13;;;10.37;100.00
18850;BME280;4989;48.772;9.154;2023-02-19T09:12:48;98740.22;;;10.24;100.00
18850;BME280;4989;48.772;9.154;2023-02-19T09:17:52;98748.31;;;10.31;100.00
18850;BME280;4989;48.772;9.154;2023-02-19T09:22:58;98748.72;;;10.33;100.00
18850;BME280;4989;48.772;9.154;2023-02-19T09:28:00;98751.22;;;10.58;100.00
18850;BME280;4989;48.772;9.154;2023-02-19T09:33:04;98755.25;;;10.39;100.00
18850;BME280;4989;48.772;9.154;2023-02-19T09:38:06;98758.28;;;10.48;100.00
18850;BME280;4989;48.772;9.154;2023-02-19T09:43:18;98757.00;;;10.64;100.00
18850;BME280;4989;48.772;9.154;2023-02-19T09:48:22;98750.19;;;10.86;97.71
18850;BME280;4989;48.772;9.154;2023-02-19T09:53:39;98771.06;;;10.96;96.97
18850;BME280;4989;48.772;9.154;2023-02-19T09:58:48;98763.78;;;10.86;95.09
18850;BME280;4989;48.772;9.154;2023-02-19T10:03:51;98767.72;;;11.16;98.49
18850;BME280;4989;48.772;9.154;2023-02-19T10:09:04;98761.06;;;12.12;96.43
18850;BME280;4989;48.772;9.154;2023-02-19T10:14:25;98751.09;;;12.29;88.26
18850;BME280;4989;48.772;9.154;2023-02-19T10:19:32;98773.56;;;11.49;89.98
18850;BME280;4989;48.772;9.154;2023-02-19T10:24:36;98769.03;;;11.38;90.71
18850;BME280;4989;48.772;9.154;2023-02-19T10:29:43;98774.06;;;12.28;100.00
18850;BME280;4989;48.772;9.154;2023-02-19T10:34:46;98780.25;;;12.32;87.27
18850;BME280;4989;48.772;9.154;2023-02-19T10:39:49;98790.66;;;12.14;95.47
18850;BME280;4989;48.772;9.154;2023-02-19T10:44:55;98799.72;;;12.04;92.81
18850;BME280;4989;48.772;9.154;2023-02-19T10:50:00;98811.13;;;13.40;89.71
18850;BME280;4989;48.772;9.154;2023-02-19T11:05:24;98807.41;;;12.63;85.41
18850;BME280;4989;48.772;9.154;2023-02-19T11:10:40;98811.38;;;12.08;95.49
18850;BME280;4989;48.772;9.154;2023-02-19T11:15:50;98805.91;;;11.77;86.98
18850;BME280;4989;48.772;9.154;2023-02-19T11:20:56;98817.13;;;13.11;87.67
18850;BME280;4989;48.772;9.154;2023-02-19T11:26:04;98821.16;;;13.66;78.98
18850;BME280;4989;48.772;9.154;2023-02-19T11:31:32;98821.63;;;12.51;83.33
18850;BME280;4989;48.772;9.154;2023-02-19T11:36:36;98810.69;;;12.27;91.49
18850;BME280;4989;48.772;9.154;2023-02-19T11:46:57;98801.63;;;11.45;94.45
18850;BME280;4989;48.772;9.154;2023-02-19T12:02:42;98829.81;;;12.51;87.12
18850;BME280;4989;48.772;9.154;2023-02-19T12:08:54;98833.75;;;12.19;86.88
18850;BME280;4989;48.772;9.154;2023-02-19T12:24:11;98814.69;;;12.19;99.72
18850;BME280;4989;48.772;9.154;2023-02-19T12:30:10;98792.63;;;12.10;92.80
18850;BME280;4989;48.772;9.154;2023-02-19T12:45:32;98819.75;;;14.14;73.42
18850;BME280;4989;48.772;9.154;2023-02-19T12:50:38;98815.28;;;13.04;78.11
18850;BME280;4989;48.772;9.154;2023-02-19T12:55:43;98792.22;;;13.49;84.80
18850;BME280;4989;48.772;9.154;2023-02-19T13:00:51;98801.88;;;12.90;79.50
18850;BME280;4989;48.772;9.154;2023-02-19T13:11:30;98814.66;;;14.49;79.93
18850;BME280;4989;48.772;9.154;2023-02-19T13:16:40;98827.56;;;12.93;77.05
18850;BME280;4989;48.772;9.154;2023-02-19T13:21:49;98815.69;;;12.32;80.61
18850;BME280;4989;48.772;9.154;2023-02-19T13:38:02;98819.31;;;13.20;96.89
18850;BME280;4989;48.772;9.154;2023-02-19T13:43:18;98809.19;;;12.50;84.84
18850;BME280;4989;48.772;9.154;2023-02-19T13:48:31;98805.50;;;12.09;83.37
18850;BME280;4989;48.772;9.154;2023-02-19T13:59:18;98793.97;;;12.25;83.48
18850;BME280;4989;48.772;9.154;2023-02-19T14:09:51;98793.69;;;13.34;78.99
18850;BME280;4989;48.772;9.154;2023-02-19T14:14:55;98794.84;;;12.69;91.09
18850;BME280;4989;48.772;9.154;2023-02-19T14:30:34;98799.78;;;12.27;87.28
18850;BME280;4989;48.772;9.154;2023-02-19T14:35:44;98812.06;;;13.53;86.70
18850;BME280;4989;48.772;9.154;2023-02-19T14:40:47;98809.84;;;14.37;91.62
18850;BME280;4989;48.772;9.154;2023-02-19T14:46:04;98811.97;;;14.65;76.76
18850;BME280;4989;48.772;9.154;2023-02-19T14:51:24;98830.00;;;14.10;81.85
18850;BME280;4989;48.772;9.154;2023-02-19T14:56:33;98822.41;;;14.71;91.50
18850;BME280;4989;48.772;9.154;2023-02-19T15:01:38;98821.31;;;14.48;75.82
18850;BME280;4989;48.772;9.154;2023-02-19T15:06:41;98821.44;;;13.72;85.08
18850;BME280;4989;48.772;9.154;2023-02-19T15:11:44;98843.78;;;13.47;75.94
18850;BME280;4989;48.772;9.154;2023-02-19T15:16:49;98856.72;;;13.83;95.84
18850;BME280;4989;48.772;9.154;2023-02-19T15:21:53;98855.47;;;13.87;88.40
18850;BME280;4989;48.772;9.154;2023-02-19T15:26:56;98865.56;;;14.27;85.84
18850;BME280;4989;48.772;9.154;2023-02-19T15:32:00;98864.31;;;13.75;79.71
18850;BME280;4989;48.772;9.154;2023-02-19T15:37:07;98876.81;;;13.33;76.35
18850;BME280;4989;48.772;9.154;2023-02-19T15:42:19;98881.56;;;13.05;79.02
18850;BME280;4989;48.772;9.154;2023-02-19T15:47:32;98882.31;;;12.55;81.46
18850;BME280;4989;48.772;9.154;2023-02-19T15:57:45;98869.00;;;11.72;85.86
18850;BME280;4989;48.772;9.154;2023-02-19T16:02:50;98873.81;;;11.57;88.21
18850;BME280;4989;48.772;9.154;2023-02-19T16:08:17;98891.81;;;11.48;89.20
18850;BME280;4989;48.772;9.154;2023-02-19T16:13:23;98896.66;;;11.29;89.89
18850;BME280;4989;48.772;9.154;2023-02-19T16:18:26;98896.78;;;11.15;91.97
18850;BME280;4989;48.772;9.154;2023-02-19T16:23:29;98889.59;;;11.35;91.99
18850;BME280;4989;48.772;9.154;2023-02-19T16:28:38;98902.84;;;11.33;91.56
18850;BME280;4989;48.772;9.154;2023-02-19T16:33:46;98897.88;;;10.76;94.40
18850;BME280;4989;48.772;9.154;2023-02-19T16:49:26;98883.34;;;10.45;97.32
18850;BME280;4989;48.772;9.154;2023-02-19T16:54:28;98894.31;;;10.27;99.07
18850;BME280;4989;48.772;9.154;2023-02-19T16:59:31;98891.88;;;10.43;99.18
18850;BME280;4989;48.772;9.154;2023-02-19T17:04:34;98897.34;;;10.36;100.00
18850;BME280;4989;48.772;9.154;2023-02-19T17:09:37;98909.09;;;10.12;100.00
18850;BME280;4989;48.772;9.154;2023-02-19T17:14:39;98909.03;;;10.33;100.00
18850;BME280;4989;48.772;9.154;2023-02-19T17:19:41;98918.97;;;10.58;100.00
18850;BME280;4989;48.772;9.154;2023-02-19T17:24:44;98921.97;;;10.74;100.00
18850;BME280;4989;48.772;9.154;2023-02-19T17:29:46;98935.84;;;10.90;99.90
18850;BME280;4989;48.772;9.154;2023-02-19T17:34:49;98934.16;;;11.11;99.23
18850;BME280;4989;48.772;9.154;2023-02-19T17:39:51;98953.53;;;11.13;98.78
18850;BME280;4989;48.772;9.154;2023-02-19T17:44:53;98954.34;;;11.10;98.91
18850;BME280;4989;48.772;9.154;2023-02-19T17:49:55;98963.22;;;10.62;100.00
18850;BME280;4989;48.772;9.154;2023-02-19T17:54:58;98966.03;;;10.40;100.00
18850;BME280;4989;48.772;9.154;2023-02-19T18:00:01;98970.00;;;10.18;100.00
18850;BME280;4989;48.772;9.154;2023-02-19T18:05:13;98982.81;;;10.14;100.00
18850;BME280;4989;48.772;9.154;2023-02-19T18:10:18;99000.66;;;10.07;100.00
18850;BME280;4989;48.772;9.154;2023-02-19T18:15:25;99011.50;;;10.36;100.00
18850;BME280;4989;48.772;9.154;2023-02-19T18:20:28;99020.81;;;10.21;100.00
18850;BME280;4989;48.772;9.154;2023-02-19T18:25:32;99018.47;;;10.19;100.00
18850;BME280;4989;48.772;9.154;2023-02-19T18:30:34;99023.97;;;10.01;100.00
18850;BME280;4989;48.772;9.154;2023-02-19T18:35:36;99018.94;;;10.00;100.00
18850;BME280;4989;48.772;9.154;2023-02-19T18:40:39;99015.44;;;9.99;100.00
18850;BME280;4989;48.772;9.154;2023-02-19T18:45:42;99026.28;;;10.06;100.00
18850;BME280;4989;48.772;9.154;2023-02-19T18:50:46;99027.03;;;10.18;100.00
18850;BME280;4989;48.772;9.154;2023-02-19T18:55:48;99017.31;;;10.31;98.60
18850;BME280;4989;48.772;9.154;2023-02-19T19:00:52;99030.91;;;10.27;99.20
18850;BME280;4989;48.772;9.154;2023-02-19T19:05:54;99037.09;;;10.42;99.19
18850;BME280;4989;48.772;9.154;2023-02-19T19:10:56;99044.00;;;10.61;97.78
18850;BME280;4989;48.772;9.154;2023-02-19T19:15:58;99055.59;;;10.76;95.82
18850;BME280;4989;48.772;9.154;2023-02-19T19:21:01;99061.09;;;10.58;96.15
18850;BME280;4989;48.772;9.154;2023-02-19T19:26:05;99071.56;;;10.63;96.49
18850;BME280;4989;48.772;9.154;2023-02-19T19:31:08;99074.78;;;10.15;98.69
18850;BME280;4989;48.772;9.154;2023-02-19T19:36:11;99064.69;;;10.12;98.83
18850;BME280;4989;48.772;9.154;2023-02-19T19:41:15;99071.28;;;10.15;99.08
18850;BME280;4989;48.772;9.154;2023-02-19T19:46:18;99068.22;;;9.95;100.00
18850;BME280;4989;48.772;9.154;2023-02-19T19:51:21;99082.56;;;9.95;100.00
18850;BME280;4989;48.772;9.154;2023-02-19T19:56:23;99082.16;;;10.00;99.71
18850;BME280;4989;48.772;9.154;2023-02-19T20:01:26;99079.84;;;9.95;99.53
18850;BME280;4989;48.772;9.154;2023-02-19T20:06:30;99078.69;;;9.93;100.00
18850;BME280;4989;48.772;9.154;2023-02-19T20:11:32;99079.06;;;9.91;100.00
18850;BME280;4989;48.772;9.154;2023-02-19T20:16:35;99073.25;;;9.82;100.00
18850;BME280;4989;48.772;9.154;2023-02-19T20:21:37;99065.91;;;9.79;100.00
18850;BME280;4989;48.772;9.154;2023-02-19T20:26:40;99066.66;;;9.79;100.00
18850;BME280;4989;48.772;9.154;2023-02-19T20:31:48;99067.44;;;9.76;100.00
18850;BME280;4989;48.772;9.154;2023-02-19T20:36:51;99079.88;;;9.67;100.00
18850;BME280;4989;48.772;9.154;2023-02-19T20:41:53;99085.28;;;9.67;100.00
18850;BME280;4989;48.772;9.154;2023-02-19T20:46:57;99077.53;;;9.69;100.00
18850;BME280;4989;48.772;9.154;2023-02-19T20:52:05;99075.22;;;9.60;100.00
18850;BME280;4989;48.772;9.154;2023-02-19T20:57:09;99077.16;;;9.59;100.00
18850;BME280;4989;48.772;9.154;2023-02-19T21:02:20;99077.94;;;9.56;100.00
18850;BME280;4989;48.772;9.154;2023-02-19T21:07:25;99073.25;;;9.50;100.00
18850;BME280;4989;48.772;9.154;2023-02-19T21:12:27;99083.72;;;9.40;100.00
18850;BME280;4989;48.772;9.154;2023-02-19T21:17:29;99090.31;;;9.43;100.00
18850;BME280;4989;48.772;9.154;2023-02-19T21:22:31;99090.72;;;9.42;100.00
18850;BME280;4989;48.772;9.154;2023-02-19T21:27:35;99096.13;;;9.38;100.00
18850;BME280;4989;48.772;9.154;2023-02-19T21:32:37;99093.78;;;9.33;100.00
18850;BME280;4989;48.772;9.154;2023-02-19T21:37:42;99100.75;;;9.27;100.00
18850;BME280;4989;48.772;9.154;2023-02-19T21:42:45;99087.56;;;9.25;100.00
18850;BME280;4989;48.772;9.154;2023-02-19T21:47:48;99074.03;;;9.36;100.00
18850;BME280;4989;48.772;9.154;2023-02-19T21:52:53;99071.28;;;9.29;100.00
18850;BME280;4989;48.772;9.154;2023-02-19T21:57:56;99069.75;;;9.21;100.00
18850;BME280;4989;48.772;9.154;2023-02-19T22:02:58;99064.72;;;9.30;100.00
18850;BME280;4989;48.772;9.154;2023-02-19T22:08:01;99060.47;;;9.32;100.00
18850;BME280;4989;48.772;9.154;2023-02-19T22:13:05;99073.63;;;9.27;100.00
18850;BME280;4989;48.772;9.154;2023-02-19T22:18:07;99070.56;;;9.43;100.00
18850;BME280;4989;48.772;9.154;2023-02-19T22:23:10;99086.41;;;9.23;100.00
18850;BME280;4989;48.772;9.154;2023-02-19T22:28:12;99090.66;;;9.16;100.00
18850;BME280;4989;48.772;9.154;2023-02-19T22:33:14;99095.34;;;9.27;100.00
18850;BME280;4989;48.772;9.154;2023-02-19T22:38:16;99096.50;;;9.29;100.00
18850;BME280;4989;48.772;9.154;2023-02-19T22:43:18;99098.84;;;9.45;100.00
18850;BME280;4989;48.772;9.154;2023-02-19T22:48:21;99103.09;;;9.46;100.00
18850;BME280;4989;48.772;9.154;2023-02-19T22:53:31;99089.94;;;9.52;100.00
18850;BME280;4989;48.772;9.154;2023-02-19T22:58:35;99087.59;;;9.36;100.00
18850;BME280;4989;48.772;9.154;2023-02-19T23:03:55;99100.00;;;9.37;100.00
18850;BME280;4989;48.772;9.154;2023-02-19T23:09:06;99113.19;;;9.35;100.00
18850;BME280;4989;48.772;9.154;2023-02-19T23:14:15;99107.38;;;9.36;100.00
18850;BME280;4989;48.772;9.154;2023-02-19T23:19:18;99113.91;;;9.25;100.00
18850;BME280;4989;48.772;9.154;2023-02-19T23:24:21;99118.59;;;9.31;100.00
18850;BME280;4989;48.772;9.154;2023-02-19T23:29:25;99116.22;;;9.23;100.00
18850;BME280;4989;48.772;9.154;2023-02-19T23:34:27;99116.22;;;9.23;100.00
18850;BME280;4989;48.772;9.154;2023-02-19T23:39:30;99110.81;;;9.23;100.00
18850;BME280;4989;48.772;9.154;2023-02-19T23:44:32;99120.88;;;9.18;100.00
18850;BME280;4989;48.772;9.154;2023-02-19T23:49:35;99108.88;;;9.20;100.00
18850;BME280;4989;48.772;9.154;2023-02-19T23:54:37;99115.44;;;9.15;100.00
18850;BME280;4989;48.772;9.154;2023-02-19T23:59:40;99119.31;;;9.10;100.00
